createdAt,value
2018-05-11T00:00:17.761Z,0
2018-05-11T00:01:18.366Z,0
2018-05-11T00:02:17.834Z,0
2018-05-11T00:03:18.121Z,0
2018-05-11T00:04:17.869Z,0
2018-05-11T00:05:18.252Z,0
2018-05-11T00:06:17.851Z,0
2018-05-11T00:07:17.600Z,0
2018-05-11T00:08:17.854Z,0
2018-05-11T00:09:17.581Z,0
2018-05-11T00:10:18.305Z,0
2018-05-11T00:11:18.094Z,0
2018-05-11T00:12:18.091Z,0
2018-05-11T00:13:17.817Z,0
2018-05-11T00:14:18.339Z,0
2018-05-11T00:15:18.278Z,0
2018-05-11T00:16:17.571Z,0
2018-05-11T00:17:17.813Z,0
2018-05-11T00:18:18.076Z,0
2018-05-11T00:19:18.085Z,0
2018-05-11T00:20:17.993Z,0
2018-05-11T00:21:18.087Z,0
2018-05-11T00:22:17.807Z,0
2018-05-11T00:23:17.819Z,0
2018-05-11T00:24:18.073Z,0
2018-05-11T00:25:17.371Z,0
2018-05-11T00:26:18.069Z,0
2018-05-11T00:27:17.811Z,0
2018-05-11T00:28:18.153Z,0
2018-05-11T00:29:18.036Z,0
2018-05-11T00:30:17.590Z,0
2018-05-11T00:31:17.809Z,0
2018-05-11T00:32:18.048Z,0
2018-05-11T00:33:18.327Z,0
2018-05-11T00:34:18.053Z,0
2018-05-11T00:35:18.116Z,0
2018-05-11T00:36:17.513Z,0
2018-05-11T00:37:18.048Z,0
2018-05-11T00:38:17.769Z,0
2018-05-11T00:39:17.268Z,0
2018-05-11T00:40:17.919Z,0
2018-05-11T00:41:17.775Z,0
2018-05-11T00:42:18.027Z,0
2018-05-11T00:43:18.041Z,0
2018-05-11T00:44:17.770Z,0
2018-05-11T00:45:18.298Z,0
2018-05-11T00:46:18.288Z,0
2018-05-11T00:47:17.501Z,0
2018-05-11T00:48:18.021Z,0
2018-05-11T00:49:18.013Z,0
2018-05-11T00:50:18.118Z,0
2018-05-11T00:51:18.590Z,0
2018-05-11T00:52:18.274Z,0
2018-05-11T00:53:18.046Z,0
2018-05-11T00:54:17.832Z,0
2018-05-11T00:55:17.517Z,0
2018-05-11T00:56:18.004Z,0
2018-05-11T00:57:17.760Z,0
2018-05-11T00:58:17.477Z,0
2018-05-11T00:59:19.747Z,0
2018-05-11T01:00:17.542Z,0
2018-05-11T01:01:18.270Z,0
2018-05-11T01:02:18.254Z,0
2018-05-11T01:03:17.724Z,0
2018-05-11T01:04:18.034Z,0
2018-05-11T01:05:18.051Z,0
2018-05-11T01:06:17.715Z,0
2018-05-11T01:07:17.974Z,0
2018-05-11T01:08:17.972Z,0
2018-05-11T01:09:17.443Z,0
2018-05-11T01:10:18.179Z,0
2018-05-11T01:11:17.991Z,0
2018-05-11T01:12:18.236Z,0
2018-05-11T01:13:18.235Z,0
2018-05-11T01:14:17.952Z,0
2018-05-11T01:15:17.899Z,0
2018-05-11T01:16:17.491Z,0
2018-05-11T01:17:17.719Z,0
2018-05-11T01:18:17.691Z,0
2018-05-11T01:19:17.691Z,0
2018-05-11T01:20:17.630Z,0
2018-05-11T01:21:17.951Z,0
2018-05-11T01:22:17.964Z,0
2018-05-11T01:23:17.942Z,0
2018-05-11T01:24:17.705Z,0
2018-05-11T01:25:17.911Z,0
2018-05-11T01:26:17.665Z,0
2018-05-11T01:27:17.655Z,0
2018-05-11T01:28:17.681Z,0
2018-05-11T01:29:20.150Z,0
2018-05-11T01:30:17.437Z,0
2018-05-11T01:31:17.929Z,0
2018-05-11T01:32:17.400Z,0
2018-05-11T01:33:17.933Z,0
2018-05-11T01:34:17.653Z,0
2018-05-11T01:35:17.648Z,0
2018-05-11T01:36:17.908Z,0
2018-05-11T01:37:17.902Z,0
2018-05-11T01:38:17.918Z,0
2018-05-11T01:39:17.659Z,0
2018-05-11T01:40:18.101Z,0
2018-05-11T01:41:18.167Z,0
2018-05-11T01:42:17.874Z,0
2018-05-11T01:43:17.619Z,0
2018-05-11T01:44:17.916Z,0
2018-05-11T01:45:17.474Z,0
2018-05-11T01:46:18.140Z,0
2018-05-11T01:47:17.897Z,0
2018-05-11T01:48:18.127Z,0
2018-05-11T01:49:17.364Z,0
2018-05-11T01:50:18.091Z,0
2018-05-11T01:51:18.131Z,0
2018-05-11T01:52:18.122Z,0
2018-05-11T01:53:17.950Z,0
2018-05-11T01:54:17.584Z,0
2018-05-11T01:55:18.267Z,0
2018-05-11T01:56:18.105Z,0
2018-05-11T01:57:17.883Z,0
2018-05-11T01:58:17.320Z,0
2018-05-11T01:59:19.461Z,0
2018-05-11T02:00:18.021Z,0
2018-05-11T02:01:17.852Z,0
2018-05-11T02:02:17.579Z,0
2018-05-11T02:03:17.309Z,0
2018-05-11T02:04:17.851Z,0
2018-05-11T02:05:18.262Z,0
2018-05-11T02:06:18.098Z,0
2018-05-11T02:07:18.158Z,0
2018-05-11T02:08:17.360Z,0
2018-05-11T02:09:17.556Z,0
2018-05-11T02:10:18.361Z,0
2018-05-11T02:11:18.062Z,0
2018-05-11T02:12:17.032Z,0
2018-05-11T02:13:17.647Z,0
2018-05-11T02:14:18.088Z,0
2018-05-11T02:15:17.398Z,0
2018-05-11T02:16:17.542Z,0
2018-05-11T02:17:17.389Z,0
2018-05-11T02:18:17.274Z,0
2018-05-11T02:19:17.284Z,0
2018-05-11T02:20:18.056Z,0
2018-05-11T02:21:17.774Z,0
2018-05-11T02:22:18.036Z,0
2018-05-11T02:23:17.773Z,0
2018-05-11T02:24:17.766Z,0
2018-05-11T02:25:17.805Z,0
2018-05-11T02:26:17.786Z,0
2018-05-11T02:27:16.986Z,0
2018-05-11T02:28:17.778Z,0
2018-05-11T02:29:17.778Z,0
2018-05-11T02:30:18.086Z,0
2018-05-11T02:31:17.257Z,0
2018-05-11T02:32:17.755Z,0
2018-05-11T02:33:17.758Z,0
2018-05-11T02:34:17.499Z,0
2018-05-11T02:35:18.247Z,0
2018-05-11T02:36:17.845Z,0
2018-05-11T02:37:17.990Z,0
2018-05-11T02:38:17.470Z,0
2018-05-11T02:39:17.488Z,0
2018-05-11T02:40:17.571Z,0
2018-05-11T02:41:17.714Z,0
2018-05-11T02:42:17.972Z,0
2018-05-11T02:43:17.202Z,0
2018-05-11T02:44:17.721Z,0
2018-05-11T02:45:17.602Z,0
2018-05-11T02:46:17.994Z,0
2018-05-11T02:47:17.464Z,0
2018-05-11T02:48:17.692Z,0
2018-05-11T02:49:17.692Z,0
2018-05-11T02:50:17.880Z,0
2018-05-11T02:51:17.710Z,0
2018-05-11T02:52:17.690Z,0
2018-05-11T02:53:17.697Z,0
2018-05-11T02:54:17.684Z,0
2018-05-11T02:55:18.639Z,0
2018-05-11T02:56:17.440Z,0
2018-05-11T02:57:17.694Z,0
2018-05-11T02:58:17.668Z,0
2018-05-11T02:59:17.937Z,0
2018-05-11T03:00:18.844Z,0
2018-05-11T03:01:17.911Z,0
2018-05-11T03:02:17.936Z,0
2018-05-11T03:03:17.139Z,0
2018-05-11T03:04:17.422Z,0
2018-05-11T03:05:18.279Z,0
2018-05-11T03:06:17.377Z,0
2018-05-11T03:07:17.398Z,0
2018-05-11T03:08:17.634Z,0
2018-05-11T03:09:17.645Z,0
2018-05-11T03:10:17.947Z,0
2018-05-11T03:11:17.637Z,0
2018-05-11T03:12:17.373Z,0
2018-05-11T03:13:17.372Z,0
2018-05-11T03:14:17.764Z,0
2018-05-11T03:15:17.408Z,0
2018-05-11T03:16:17.860Z,0
2018-05-11T03:17:17.338Z,0
2018-05-11T03:18:17.699Z,0
2018-05-11T03:19:17.356Z,0
2018-05-11T03:20:17.981Z,0
2018-05-11T03:21:17.367Z,0
2018-05-11T03:22:17.076Z,0
2018-05-11T03:23:17.847Z,0
2018-05-11T03:24:17.596Z,0
2018-05-11T03:25:17.954Z,0
2018-05-11T03:26:17.069Z,0
2018-05-11T03:27:17.304Z,0
2018-05-11T03:28:17.578Z,0
2018-05-11T03:29:17.829Z,0
2018-05-11T03:30:17.657Z,0
2018-05-11T03:31:17.569Z,0
2018-05-11T03:32:17.862Z,0
2018-05-11T03:33:17.558Z,0
2018-05-11T03:34:17.835Z,0
2018-05-11T03:35:17.716Z,0
2018-05-11T03:36:17.026Z,0
2018-05-11T03:37:17.278Z,0
2018-05-11T03:38:17.259Z,0
2018-05-11T03:39:16.994Z,0
2018-05-11T03:40:17.914Z,0
2018-05-11T03:41:17.529Z,0
2018-05-11T03:42:17.518Z,0
2018-05-11T03:43:17.259Z,0
2018-05-11T03:44:17.764Z,0
2018-05-11T03:45:17.144Z,0
2018-05-11T03:46:17.520Z,0
2018-05-11T03:47:17.481Z,5
2018-05-11T03:48:17.295Z,5
2018-05-11T03:49:17.669Z,5
2018-05-11T03:50:17.361Z,5
2018-05-11T03:51:17.243Z,5
2018-05-11T03:52:16.974Z,5
2018-05-11T03:53:17.766Z,5
2018-05-11T03:54:17.227Z,5
2018-05-11T03:55:17.638Z,5
2018-05-11T03:56:17.232Z,10
2018-05-11T03:57:17.205Z,10
2018-05-11T03:58:17.493Z,10
2018-05-11T03:59:17.210Z,10
2018-05-11T04:00:18.009Z,15
2018-05-11T04:01:17.718Z,15
2018-05-11T04:02:17.744Z,15
2018-05-11T04:03:17.516Z,20
2018-05-11T04:04:17.180Z,20
2018-05-11T04:05:17.214Z,20
2018-05-11T04:06:16.924Z,25
2018-05-11T04:07:17.447Z,25
2018-05-11T04:08:17.164Z,25
2018-05-11T04:09:17.157Z,30
2018-05-11T04:10:17.367Z,30
2018-05-11T04:11:17.161Z,30
2018-05-11T04:12:17.426Z,35
2018-05-11T04:13:17.120Z,35
2018-05-11T04:14:17.160Z,35
2018-05-11T04:15:17.368Z,35
2018-05-11T04:16:17.164Z,35
2018-05-11T04:17:17.667Z,35
2018-05-11T04:18:17.676Z,40
2018-05-11T04:19:17.429Z,40
2018-05-11T04:20:17.875Z,45
2018-05-11T04:21:16.866Z,45
2018-05-11T04:22:17.414Z,50
2018-05-11T04:23:17.152Z,55
2018-05-11T04:24:17.123Z,55
2018-05-11T04:25:17.870Z,60
2018-05-11T04:26:16.879Z,60
2018-05-11T04:27:17.102Z,65
2018-05-11T04:28:17.432Z,65
2018-05-11T04:29:17.375Z,65
2018-05-11T04:30:17.527Z,65
2018-05-11T04:31:17.095Z,70
2018-05-11T04:32:17.369Z,70
2018-05-11T04:33:17.373Z,70
2018-05-11T04:34:17.113Z,75
2018-05-11T04:35:17.240Z,75
2018-05-11T04:36:17.099Z,80
2018-05-11T04:37:17.804Z,80
2018-05-11T04:38:16.843Z,85
2018-05-11T04:39:17.354Z,85
2018-05-11T04:40:17.505Z,85
2018-05-11T04:41:17.070Z,85
2018-05-11T04:42:17.089Z,85
2018-05-11T04:43:17.101Z,90
2018-05-11T04:44:16.819Z,90
2018-05-11T04:45:17.434Z,95
2018-05-11T04:46:16.813Z,95
2018-05-11T04:47:17.072Z,100
2018-05-11T04:48:17.342Z,100
2018-05-11T04:49:17.605Z,110
2018-05-11T04:50:16.992Z,120
2018-05-11T04:51:17.611Z,125
2018-05-11T04:52:17.107Z,125
2018-05-11T04:53:17.351Z,115
2018-05-11T04:54:16.822Z,120
2018-05-11T04:55:17.121Z,125
2018-05-11T04:56:17.055Z,130
2018-05-11T04:57:17.566Z,140
2018-05-11T04:58:17.081Z,145
2018-05-11T04:59:17.050Z,150
2018-05-11T05:00:17.175Z,150
2018-05-11T05:01:19.218Z,145
2018-05-11T05:02:17.561Z,140
2018-05-11T05:03:17.146Z,140
2018-05-11T05:04:17.301Z,145
2018-05-11T05:05:17.414Z,140
2018-05-11T05:06:17.300Z,195
2018-05-11T05:07:17.052Z,175
2018-05-11T05:08:17.059Z,145
2018-05-11T05:09:17.064Z,150
2018-05-11T05:10:17.193Z,150
2018-05-11T05:11:17.330Z,150
2018-05-11T05:12:17.100Z,155
2018-05-11T05:13:16.574Z,155
2018-05-11T05:14:17.059Z,155
2018-05-11T05:15:16.885Z,160
2018-05-11T05:16:17.041Z,185
2018-05-11T05:17:17.579Z,190
2018-05-11T05:18:17.063Z,170
2018-05-11T05:19:17.998Z,170
2018-05-11T05:20:17.151Z,175
2018-05-11T05:21:17.306Z,185
2018-05-11T05:22:17.332Z,195
2018-05-11T05:23:17.055Z,210
2018-05-11T05:24:17.585Z,225
2018-05-11T05:25:17.325Z,235
2018-05-11T05:26:17.059Z,240
2018-05-11T05:27:17.075Z,255
2018-05-11T05:28:17.061Z,265
2018-05-11T05:29:16.802Z,270
2018-05-11T05:30:17.417Z,285
2018-05-11T05:31:18.110Z,285
2018-05-11T05:32:17.577Z,280
2018-05-11T05:33:17.271Z,280
2018-05-11T05:34:16.800Z,280
2018-05-11T05:35:17.402Z,285
2018-05-11T05:36:17.325Z,285
2018-05-11T05:37:17.330Z,285
2018-05-11T05:38:17.605Z,290
2018-05-11T05:39:17.748Z,295
2018-05-11T05:40:17.605Z,295
2018-05-11T05:41:17.594Z,300
2018-05-11T05:42:17.578Z,305
2018-05-11T05:43:17.377Z,305
2018-05-11T05:44:17.074Z,305
2018-05-11T05:45:17.423Z,305
2018-05-11T05:46:17.125Z,310
2018-05-11T05:47:17.382Z,310
2018-05-11T05:48:17.357Z,315
2018-05-11T05:49:17.395Z,320
2018-05-11T05:50:17.124Z,320
2018-05-11T05:51:17.383Z,320
2018-05-11T05:52:17.595Z,325
2018-05-11T05:53:17.657Z,320
2018-05-11T05:54:17.626Z,320
2018-05-11T05:55:17.421Z,315
2018-05-11T05:56:17.125Z,320
2018-05-11T05:57:17.400Z,325
2018-05-11T05:58:17.654Z,330
2018-05-11T05:59:17.423Z,330
2018-05-11T06:00:17.161Z,330
2018-05-11T06:01:17.474Z,330
2018-05-11T06:02:17.684Z,335
2018-05-11T06:03:17.410Z,345
2018-05-11T06:04:17.440Z,340
2018-05-11T06:05:17.816Z,340
2018-05-11T06:06:17.418Z,345
2018-05-11T06:07:17.187Z,345
2018-05-11T06:08:18.126Z,345
2018-05-11T06:09:17.730Z,345
2018-05-11T06:10:17.208Z,345
2018-05-11T06:11:17.724Z,345
2018-05-11T06:12:17.724Z,345
2018-05-11T06:13:17.723Z,345
2018-05-11T06:23:12.619Z,305
2018-05-11T06:24:12.255Z,305
2018-05-11T06:25:12.172Z,310
2018-05-11T06:26:12.516Z,310
2018-05-11T06:27:12.010Z,310
2018-05-11T06:28:12.026Z,315
2018-05-11T06:29:12.555Z,320
2018-05-11T06:30:12.124Z,325
2018-05-11T06:31:12.543Z,325
2018-05-11T06:32:12.528Z,325
2018-05-11T06:33:12.026Z,325
2018-05-11T06:34:12.891Z,330
2018-05-11T06:35:12.645Z,330
2018-05-11T06:36:11.793Z,335
2018-05-11T06:37:12.300Z,335
2018-05-11T06:38:12.583Z,335
2018-05-11T06:39:12.306Z,345
2018-05-11T06:40:12.066Z,355
2018-05-11T06:41:12.578Z,355
2018-05-11T06:42:12.846Z,355
2018-05-11T06:43:12.343Z,355
2018-05-11T06:44:12.596Z,355
2018-05-11T06:45:12.843Z,355
2018-05-11T06:46:12.661Z,355
2018-05-11T06:47:12.856Z,360
2018-05-11T06:48:12.627Z,360
2018-05-11T06:49:12.620Z,365
2018-05-11T06:50:12.934Z,365
2018-05-11T06:51:12.635Z,370
2018-05-11T06:52:12.877Z,370
2018-05-11T06:53:12.439Z,365
2018-05-11T06:54:12.118Z,375
2018-05-11T06:55:12.686Z,365
2018-05-11T06:56:12.401Z,365
2018-05-11T06:57:12.160Z,370
2018-05-11T06:58:12.672Z,375
2018-05-11T06:59:12.418Z,380
2018-05-11T07:00:12.364Z,375
2018-05-11T07:01:12.667Z,375
2018-05-11T07:02:12.666Z,385
2018-05-11T07:03:12.468Z,390
2018-05-11T07:04:12.699Z,380
2018-05-11T07:05:13.173Z,385
2018-05-11T07:06:12.451Z,385
2018-05-11T07:07:12.452Z,385
2018-05-11T07:08:12.495Z,390
2018-05-11T07:09:12.221Z,390
2018-05-11T07:10:12.415Z,380
2018-05-11T07:11:12.495Z,370
2018-05-11T07:12:12.751Z,370
2018-05-11T07:13:12.768Z,350
2018-05-11T07:14:12.492Z,340
2018-05-11T07:15:12.063Z,340
2018-05-11T07:16:12.249Z,345
2018-05-11T07:17:13.046Z,345
2018-05-11T07:18:12.525Z,355
2018-05-11T07:19:12.516Z,360
2018-05-11T07:20:13.000Z,360
2018-05-11T07:21:12.534Z,365
2018-05-11T07:22:12.960Z,370
2018-05-11T07:23:12.372Z,370
2018-05-11T07:24:12.819Z,385
2018-05-11T07:25:12.188Z,385
2018-05-11T07:26:13.107Z,385
2018-05-11T07:27:12.567Z,270
2018-05-11T07:28:12.574Z,260
2018-05-11T07:29:12.352Z,385
2018-05-11T07:30:12.672Z,380
2018-05-11T07:31:12.613Z,380
2018-05-11T07:32:12.352Z,380
2018-05-11T07:33:12.637Z,385
2018-05-11T07:34:13.145Z,385
2018-05-11T07:35:12.433Z,385
2018-05-11T07:36:12.644Z,385
2018-05-11T07:37:12.875Z,385
2018-05-11T07:38:13.142Z,310
2018-05-11T07:39:12.639Z,375
2018-05-11T07:40:12.941Z,370
2018-05-11T07:41:12.651Z,370
2018-05-11T07:42:12.958Z,365
2018-05-11T07:43:12.854Z,365
2018-05-11T07:44:12.685Z,365
2018-05-11T07:45:12.924Z,380
2018-05-11T07:46:12.933Z,390
2018-05-11T07:47:12.768Z,345
2018-05-11T07:48:12.949Z,375
2018-05-11T07:49:12.709Z,370
2018-05-11T07:50:13.558Z,380
2018-05-11T07:51:12.459Z,380
2018-05-11T07:52:12.721Z,380
2018-05-11T07:53:12.768Z,380
2018-05-11T07:54:12.721Z,380
2018-05-11T07:55:12.787Z,315
2018-05-11T07:56:12.497Z,220
2018-05-11T07:57:13.258Z,235
2018-05-11T07:58:12.735Z,380
2018-05-11T07:59:12.850Z,385
2018-05-11T08:00:12.445Z,380
2018-05-11T08:01:13.278Z,375
2018-05-11T08:02:12.493Z,325
2018-05-11T08:03:12.789Z,300
2018-05-11T08:04:12.854Z,380
2018-05-11T08:05:13.260Z,390
2018-05-11T08:06:12.544Z,395
2018-05-11T08:07:12.792Z,400
2018-05-11T08:08:15.152Z,305
2018-05-11T08:09:12.833Z,390
2018-05-11T08:10:13.188Z,280
2018-05-11T08:11:13.074Z,260
2018-05-11T08:12:12.805Z,380
2018-05-11T08:13:13.085Z,405
2018-05-11T08:14:13.970Z,410
2018-05-11T08:15:13.395Z,415
2018-05-11T08:16:13.132Z,380
2018-05-11T08:17:12.822Z,330
2018-05-11T08:18:12.842Z,285
2018-05-11T08:19:12.850Z,350
2018-05-11T08:20:13.028Z,425
2018-05-11T08:21:12.391Z,425
2018-05-11T08:22:12.863Z,430
2018-05-11T08:23:13.442Z,430
2018-05-11T08:24:13.120Z,420
2018-05-11T08:25:13.262Z,345
2018-05-11T08:26:12.609Z,320
2018-05-11T08:27:12.869Z,300
2018-05-11T08:28:12.869Z,300
2018-05-11T08:29:12.889Z,330
2018-05-11T08:30:13.221Z,305
2018-05-11T08:31:12.907Z,315
2018-05-11T08:32:12.909Z,315
2018-05-11T08:33:12.964Z,290
2018-05-11T08:34:12.913Z,285
2018-05-11T08:35:12.993Z,300
2018-05-11T08:36:13.202Z,330
2018-05-11T08:37:13.797Z,400
2018-05-11T08:38:13.460Z,350
2018-05-11T08:39:12.954Z,340
2018-05-11T08:40:12.939Z,355
2018-05-11T08:41:12.941Z,330
2018-05-11T08:42:13.441Z,320
2018-05-11T08:43:13.435Z,440
2018-05-11T08:44:13.457Z,440
2018-05-11T08:45:12.857Z,400
2018-05-11T08:46:12.961Z,320
2018-05-11T08:47:13.032Z,310
2018-05-11T08:48:13.596Z,305
2018-05-11T08:49:13.223Z,310
2018-05-11T08:50:13.457Z,330
2018-05-11T08:51:13.240Z,445
2018-05-11T08:52:12.979Z,455
2018-05-11T08:53:12.775Z,405
2018-05-11T08:54:12.981Z,280
2018-05-11T08:55:13.298Z,275
2018-05-11T08:56:13.522Z,275
2018-05-11T08:57:13.704Z,275
2018-05-11T08:58:13.271Z,275
2018-05-11T08:59:13.263Z,285
2018-05-11T09:00:13.234Z,295
2018-05-11T09:01:13.296Z,305
2018-05-11T09:02:12.754Z,315
2018-05-11T09:03:14.744Z,320
2018-05-11T09:04:13.057Z,320
2018-05-11T09:05:13.428Z,320
2018-05-11T09:06:13.041Z,320
2018-05-11T09:07:13.330Z,330
2018-05-11T09:08:13.300Z,340
2018-05-11T09:09:13.291Z,395
2018-05-11T09:10:13.517Z,450
2018-05-11T09:11:13.333Z,335
2018-05-11T09:12:13.582Z,325
2018-05-11T09:13:13.058Z,310
2018-05-11T09:14:13.320Z,360
2018-05-11T09:15:13.057Z,410
2018-05-11T09:16:13.597Z,420
2018-05-11T09:17:13.326Z,400
2018-05-11T09:18:13.076Z,385
2018-05-11T09:19:13.335Z,385
2018-05-11T09:20:13.509Z,385
2018-05-11T09:21:13.362Z,410
2018-05-11T09:22:13.742Z,415
2018-05-11T09:23:13.342Z,400
2018-05-11T09:24:13.136Z,315
2018-05-11T09:25:13.478Z,255
2018-05-11T09:26:12.862Z,245
2018-05-11T09:27:13.626Z,245
2018-05-11T09:28:13.638Z,260
2018-05-11T09:29:13.647Z,270
2018-05-11T09:30:13.604Z,370
2018-05-11T09:31:13.110Z,365
2018-05-11T09:32:13.368Z,350
2018-05-11T09:33:13.121Z,305
2018-05-11T09:34:13.383Z,295
2018-05-11T09:35:13.487Z,285
2018-05-11T09:36:13.402Z,275
2018-05-11T09:37:13.104Z,290
2018-05-11T09:38:12.880Z,390
2018-05-11T09:39:15.261Z,270
2018-05-11T09:40:12.983Z,270
2018-05-11T09:41:13.415Z,275
2018-05-11T09:42:13.410Z,270
2018-05-11T09:43:13.145Z,280
2018-05-11T09:44:13.421Z,395
2018-05-11T09:45:13.174Z,355
2018-05-11T09:46:13.180Z,280
2018-05-11T09:47:13.400Z,270
2018-05-11T09:48:13.208Z,275
2018-05-11T09:49:13.446Z,280
2018-05-11T09:50:13.346Z,285
2018-05-11T09:51:13.182Z,365
2018-05-11T09:52:13.175Z,400
2018-05-11T09:53:13.190Z,395
2018-05-11T09:54:13.727Z,280
2018-05-11T09:55:13.434Z,265
2018-05-11T09:56:13.452Z,260
2018-05-11T09:57:13.178Z,265
2018-05-11T09:58:13.492Z,275
2018-05-11T09:59:13.454Z,260
2018-05-11T10:00:13.041Z,265
2018-05-11T10:01:13.725Z,245
2018-05-11T10:02:13.205Z,240
2018-05-11T10:03:13.505Z,235
2018-05-11T10:04:13.544Z,230
2018-05-11T10:05:13.567Z,230
2018-05-11T10:06:13.467Z,230
2018-05-11T10:07:13.475Z,240
2018-05-11T10:08:13.206Z,245
2018-05-11T10:09:13.288Z,260
2018-05-11T10:10:13.705Z,325
2018-05-11T10:11:12.985Z,335
2018-05-11T10:12:13.211Z,340
2018-05-11T10:13:13.231Z,335
2018-05-11T10:14:12.970Z,265
2018-05-11T10:15:13.878Z,270
2018-05-11T10:16:13.759Z,320
2018-05-11T10:17:13.499Z,335
2018-05-11T10:18:12.974Z,335
2018-05-11T10:19:13.226Z,335
2018-05-11T10:20:13.407Z,280
2018-05-11T10:21:13.247Z,255
2018-05-11T10:22:13.791Z,315
2018-05-11T10:23:13.239Z,325
2018-05-11T10:53:26.964Z,310
2018-05-11T10:54:27.420Z,330
2018-05-11T10:55:27.415Z,355
2018-05-11T10:56:26.898Z,310
2018-05-11T10:57:27.149Z,340
2018-05-11T10:58:27.426Z,380
2018-05-11T10:59:27.433Z,380
2018-05-11T11:00:27.419Z,375
2018-05-11T11:01:27.364Z,370
2018-05-11T11:02:27.503Z,335
2018-05-11T11:03:27.684Z,295
2018-05-11T11:04:27.454Z,270
2018-05-11T11:05:27.441Z,275
2018-05-11T11:06:27.172Z,280
2018-05-11T11:07:26.692Z,285
2018-05-11T11:08:27.216Z,280
2018-05-11T11:09:27.432Z,275
2018-05-11T11:10:27.447Z,275
2018-05-11T11:11:27.180Z,265
2018-05-11T11:12:27.451Z,260
2018-05-11T11:13:27.213Z,260
2018-05-11T11:14:27.290Z,280
2018-05-11T11:15:26.937Z,305
2018-05-11T11:16:27.725Z,295
2018-05-11T11:17:27.460Z,330
2018-05-11T11:18:27.210Z,310
2018-05-11T11:19:27.196Z,375
2018-05-11T11:20:27.467Z,380
2018-05-11T11:21:27.229Z,385
2018-05-11T11:22:27.491Z,355
2018-05-11T11:23:27.284Z,360
2018-05-11T11:24:27.496Z,310
2018-05-11T11:25:27.738Z,330
2018-05-11T11:26:27.745Z,325
2018-05-11T11:27:27.489Z,325
2018-05-11T11:28:27.483Z,325
2018-05-11T11:29:27.510Z,325
2018-05-11T11:30:27.229Z,335
2018-05-11T11:31:27.006Z,340
2018-05-11T11:32:27.766Z,335
2018-05-11T11:33:27.238Z,325
2018-05-11T11:34:28.144Z,330
2018-05-11T11:35:27.242Z,335
2018-05-11T11:36:27.510Z,330
2018-05-11T11:37:27.361Z,325
2018-05-11T11:38:28.054Z,325
2018-05-11T11:39:27.260Z,325
2018-05-11T11:40:27.803Z,320
2018-05-11T11:41:27.786Z,300
2018-05-11T11:42:27.848Z,305
2018-05-11T11:43:27.561Z,275
2018-05-11T11:44:27.795Z,290
2018-05-11T11:45:27.532Z,295
2018-05-11T11:46:27.276Z,260
2018-05-11T11:47:27.724Z,235
2018-05-11T11:48:27.543Z,235
2018-05-11T11:49:27.303Z,235
2018-05-11T11:50:27.293Z,235
2018-05-11T11:51:27.792Z,240
2018-05-11T11:52:27.557Z,240
2018-05-11T11:53:27.615Z,240
2018-05-11T11:54:27.592Z,240
2018-05-11T11:55:27.291Z,230
2018-05-11T11:56:28.233Z,225
2018-05-11T11:57:27.308Z,230
2018-05-11T11:58:26.778Z,235
2018-05-11T11:59:27.585Z,240
2018-05-11T12:00:27.323Z,245
2018-05-11T12:01:27.346Z,250
2018-05-11T12:02:27.324Z,275
2018-05-11T12:03:27.331Z,290
2018-05-11T12:04:27.576Z,250
2018-05-11T12:05:27.581Z,240
2018-05-11T12:06:27.328Z,235
2018-05-11T12:07:27.335Z,240
2018-05-11T12:08:28.451Z,235
2018-05-11T12:09:27.366Z,235
2018-05-11T12:10:27.611Z,235
2018-05-11T12:11:27.632Z,265
2018-05-11T12:12:27.620Z,255
2018-05-11T12:13:27.612Z,240
2018-05-11T12:14:27.653Z,235
2018-05-11T12:15:27.624Z,240
2018-05-11T12:16:27.352Z,250
2018-05-11T12:17:28.125Z,270
2018-05-11T12:18:27.361Z,280
2018-05-11T12:19:27.398Z,295
2018-05-11T12:20:27.894Z,295
2018-05-11T12:21:27.634Z,285
2018-05-11T12:22:27.382Z,280
2018-05-11T12:23:27.970Z,300
2018-05-11T12:24:27.904Z,280
2018-05-11T12:25:27.654Z,300
2018-05-11T12:26:28.355Z,270
2018-05-11T12:27:27.140Z,275
2018-05-11T12:28:27.406Z,275
2018-05-11T12:29:27.661Z,265
2018-05-11T12:30:27.937Z,260
2018-05-11T12:31:27.420Z,265
2018-05-11T12:32:27.688Z,270
2018-05-11T12:33:27.678Z,265
2018-05-11T12:34:27.682Z,240
2018-05-11T12:35:27.168Z,235
2018-05-11T12:36:27.944Z,240
2018-05-11T12:37:27.172Z,265
2018-05-11T12:38:27.432Z,255
2018-05-11T12:39:27.432Z,275
2018-05-11T12:40:27.727Z,270
2018-05-11T12:41:27.700Z,265
2018-05-11T12:42:27.476Z,260
2018-05-11T12:43:27.977Z,265
2018-05-11T12:44:28.535Z,275
2018-05-11T12:45:27.725Z,275
2018-05-11T12:46:27.452Z,265
2018-05-11T12:47:28.000Z,290
2018-05-11T12:48:27.322Z,270
2018-05-11T12:49:27.475Z,275
2018-05-11T12:50:27.464Z,285
2018-05-11T12:51:27.480Z,270
2018-05-11T12:52:27.521Z,285
2018-05-11T12:53:27.822Z,290
2018-05-11T12:54:27.289Z,285
2018-05-11T12:55:27.787Z,280
2018-05-11T12:56:27.755Z,270
2018-05-11T12:57:27.505Z,265
2018-05-11T12:58:27.548Z,275
2018-05-11T12:59:27.616Z,285
2018-05-11T13:00:27.793Z,280
2018-05-11T13:01:27.543Z,280
2018-05-11T13:02:27.794Z,280
2018-05-11T13:03:27.540Z,275
2018-05-11T13:04:27.840Z,265
2018-05-11T13:05:27.823Z,240
2018-05-11T13:06:28.130Z,275
2018-05-11T13:07:27.944Z,265
2018-05-11T13:08:27.268Z,275
2018-05-11T13:09:31.558Z,270
2018-05-11T13:10:27.857Z,265
2018-05-11T13:11:27.810Z,270
2018-05-11T13:12:28.147Z,270
2018-05-11T13:13:28.079Z,275
2018-05-11T13:14:27.326Z,280
2018-05-11T13:15:28.077Z,285
2018-05-11T13:16:27.819Z,290
2018-05-11T13:17:28.089Z,295
2018-05-11T13:18:27.599Z,300
2018-05-11T13:19:27.890Z,310
2018-05-11T13:20:28.269Z,300
2018-05-11T13:21:27.853Z,300
2018-05-11T13:22:27.831Z,260
2018-05-11T13:23:27.596Z,255
2018-05-11T13:24:28.213Z,285
2018-05-11T13:25:28.163Z,290
2018-05-11T13:26:27.365Z,280
2018-05-11T13:27:27.865Z,280
2018-05-11T13:28:27.877Z,285
2018-05-11T13:29:27.629Z,280
2018-05-11T13:30:28.755Z,265
2018-05-11T13:31:27.386Z,260
2018-05-11T13:32:27.658Z,245
2018-05-11T13:33:27.902Z,220
2018-05-11T13:34:27.654Z,215
2018-05-11T13:35:27.935Z,215
2018-05-11T13:36:28.439Z,220
2018-05-11T13:37:27.985Z,220
2018-05-11T13:38:28.218Z,225
2018-05-11T13:39:28.192Z,230
2018-05-11T13:40:27.659Z,240
2018-05-11T13:41:27.934Z,270
2018-05-11T13:42:27.665Z,265
2018-05-11T13:43:27.936Z,255
2018-05-11T13:44:27.933Z,265
2018-05-11T13:45:27.688Z,275
2018-05-11T13:46:27.669Z,260
2018-05-11T13:47:27.698Z,290
2018-05-11T13:48:28.531Z,300
2018-05-11T13:49:27.951Z,305
2018-05-11T13:50:27.697Z,310
2018-05-11T13:51:28.250Z,305
2018-05-11T13:52:27.451Z,300
2018-05-11T13:53:27.708Z,305
2018-05-11T13:54:28.045Z,305
2018-05-11T13:55:27.959Z,300
2018-05-11T13:56:28.257Z,290
2018-05-11T13:57:27.459Z,285
2018-05-11T13:58:28.244Z,280
2018-05-11T13:59:27.993Z,270
2018-05-11T14:00:27.741Z,265
2018-05-11T14:01:27.733Z,255
2018-05-11T14:02:27.481Z,245
2018-05-11T14:03:28.003Z,250
2018-05-11T14:04:28.017Z,250
2018-05-11T14:05:27.756Z,250
2018-05-11T14:06:28.279Z,255
2018-05-11T14:07:27.239Z,265
2018-05-11T14:08:28.052Z,265
2018-05-11T14:09:28.014Z,265
2018-05-11T14:10:28.322Z,270
2018-05-11T14:11:28.296Z,280
2018-05-11T14:12:28.081Z,285
2018-05-11T14:13:28.320Z,285
2018-05-11T14:14:28.045Z,285
2018-05-11T14:15:28.345Z,275
2018-05-11T14:16:27.789Z,275
2018-05-11T14:17:27.793Z,275
2018-05-11T14:18:27.529Z,270
2018-05-11T14:19:28.322Z,270
2018-05-11T14:20:28.065Z,265
2018-05-11T14:21:27.826Z,270
2018-05-11T14:22:28.075Z,270
2018-05-11T14:23:28.085Z,270
2018-05-11T14:24:28.140Z,290
2018-05-11T14:25:27.861Z,285
2018-05-11T14:26:28.095Z,285
2018-05-11T14:27:27.825Z,285
2018-05-11T14:28:28.357Z,295
2018-05-11T14:29:28.115Z,290
2018-05-11T14:30:28.393Z,285
2018-05-11T14:31:27.597Z,285
2018-05-11T14:32:28.131Z,280
2018-05-11T14:33:28.107Z,285
2018-05-11T14:34:27.367Z,285
2018-05-11T14:35:28.384Z,275
2018-05-11T14:36:28.127Z,280
2018-05-11T14:37:28.124Z,280
2018-05-11T14:38:27.627Z,275
2018-05-11T14:39:28.893Z,295
2018-05-11T14:40:30.890Z,280
2018-05-11T14:41:28.160Z,285
2018-05-11T14:42:28.159Z,290